createdAt,value
2018-02-16T00:03:13.500Z,75.40
2018-02-16T00:05:41.811Z,75.30
2018-02-16T00:08:09.386Z,75.30
2018-02-16T00:10:36.948Z,75.30
2018-02-16T00:13:04.498Z,75.30
2018-02-16T00:15:32.157Z,75.30
2018-02-16T00:17:59.699Z,75.40
2018-02-16T00:20:27.300Z,75.40
2018-02-16T00:22:54.840Z,75.40
2018-02-16T00:25:22.776Z,75.40
2018-02-16T00:27:50.404Z,75.90
2018-02-16T00:30:17.965Z,75.60
2018-02-16T00:32:45.547Z,75.60
2018-02-16T00:35:13.088Z,75.80
2018-02-16T00:37:40.661Z,75.90
2018-02-16T00:40:08.241Z,75.90
2018-02-16T00:42:36.644Z,76.00
2018-02-16T00:45:04.185Z,76.00
2018-02-16T00:47:32.183Z,76.00
2018-02-16T00:49:59.732Z,75.90
2018-02-16T00:52:27.271Z,75.90
2018-02-16T00:54:54.844Z,76.10
2018-02-16T00:57:22.384Z,76.20
2018-02-16T00:59:49.989Z,76.20
2018-02-16T01:02:17.514Z,76.20
2018-02-16T01:04:45.105Z,76.10
2018-02-16T01:07:12.641Z,76.10
2018-02-16T01:09:40.208Z,76.10
2018-02-16T01:12:07.745Z,76.10
2018-02-16T01:14:35.648Z,76.30
2018-02-16T01:17:03.189Z,76.20
2018-02-16T01:19:30.720Z,76.30
2018-02-16T01:21:59.100Z,75.90
2018-02-16T01:24:27.413Z,76.40
2018-02-16T01:26:55.049Z,76.30
2018-02-16T01:29:22.592Z,76.30
2018-02-16T01:31:50.943Z,76.30
2018-02-16T01:34:18.488Z,76.30
2018-02-16T01:36:46.390Z,76.40
2018-02-16T01:39:14.698Z,76.40
2018-02-16T01:41:42.264Z,76.40
2018-02-16T01:44:09.859Z,76.50
2018-02-16T01:46:37.485Z,76.50
2018-02-16T01:49:05.056Z,76.70
2018-02-16T01:51:32.603Z,76.80
2018-02-16T01:54:00.175Z,76.80
2018-02-16T01:56:27.731Z,76.80
2018-02-16T01:58:55.324Z,76.90
2018-02-16T02:01:22.902Z,76.60
2018-02-16T02:03:51.562Z,76.80
2018-02-16T02:06:19.112Z,76.80
2018-02-16T02:08:46.643Z,76.80
2018-02-16T02:11:14.261Z,76.80
2018-02-16T02:13:41.796Z,76.50
2018-02-16T02:16:09.373Z,76.60
2018-02-16T02:18:36.905Z,76.70
2018-02-16T02:21:04.476Z,77.30
2018-02-16T02:23:32.016Z,76.80
2018-02-16T02:25:59.889Z,76.90
2018-02-16T02:28:27.529Z,77.00
2018-02-16T02:30:55.064Z,76.90
2018-02-16T02:33:23.413Z,77.00
2018-02-16T02:35:50.994Z,77.00
2018-02-16T02:38:19.832Z,77.20
2018-02-16T02:40:47.433Z,77.20
2018-02-16T02:43:14.972Z,77.30
2018-02-16T02:45:42.557Z,77.10
2018-02-16T02:48:10.097Z,77.30
2018-02-16T02:50:37.693Z,76.80
2018-02-16T02:53:05.218Z,77.10
2018-02-16T02:55:32.797Z,76.70
2018-02-16T02:58:00.328Z,77.00
2018-02-16T03:00:27.929Z,77.10
2018-02-16T03:02:55.469Z,77.40
2018-02-16T03:05:23.849Z,77.80
2018-02-16T03:07:51.384Z,77.80
2018-02-16T03:10:19.277Z,78.20
2018-02-16T03:12:47.590Z,78.10
2018-02-16T03:15:15.130Z,78.00
2018-02-16T03:17:42.703Z,78.20
2018-02-16T03:20:10.233Z,78.40
2018-02-16T03:22:37.893Z,78.10
2018-02-16T03:25:05.450Z,78.40
2018-02-16T03:27:33.786Z,78.70
2018-02-16T03:30:01.393Z,78.70
2018-02-16T03:32:30.045Z,79.40
2018-02-16T03:34:57.673Z,79.40
2018-02-16T03:37:25.205Z,79.50
2018-02-16T03:39:53.554Z,79.40
2018-02-16T03:42:21.102Z,79.40
2018-02-16T03:44:48.692Z,79.30
2018-02-16T03:47:16.236Z,79.40
2018-02-16T03:49:43.833Z,79.10
2018-02-16T03:52:11.378Z,79.40
2018-02-16T03:54:40.009Z,79.30
2018-02-16T03:57:07.562Z,79.30
2018-02-16T03:59:35.104Z,79.10
2018-02-16T04:02:02.695Z,79.40
2018-02-16T04:04:30.238Z,79.40
2018-02-16T04:06:58.112Z,79.40
2018-02-16T04:09:25.651Z,79.40
2018-02-16T04:11:53.183Z,79.40
2018-02-16T04:14:20.756Z,79.40
2018-02-16T04:16:48.294Z,79.20
2018-02-16T04:19:15.920Z,79.40
2018-02-16T04:21:43.448Z,78.80
2018-02-16T04:24:11.021Z,79.00
2018-02-16T04:26:38.556Z,79.40
2018-02-16T04:29:06.458Z,79.30
2018-02-16T04:31:33.989Z,79.30
2018-02-16T04:34:01.528Z,79.30
2018-02-16T04:36:29.112Z,79.30
2018-02-16T04:38:56.653Z,79.30
2018-02-16T04:41:24.231Z,79.30
2018-02-16T04:43:51.769Z,79.30
2018-02-16T04:46:19.759Z,79.30
2018-02-16T04:48:47.319Z,79.30
2018-02-16T04:51:14.865Z,79.30
2018-02-16T04:53:42.444Z,79.90
2018-02-16T04:56:09.984Z,79.20
2018-02-16T04:58:37.760Z,79.20
2018-02-16T05:01:05.328Z,79.20
2018-02-16T05:03:32.927Z,79.20
2018-02-16T05:06:00.476Z,79.10
2018-02-16T05:08:28.421Z,79.00
2018-02-16T05:10:55.953Z,79.10
2018-02-16T05:13:23.492Z,79.40
2018-02-16T05:15:51.075Z,80.00
2018-02-16T05:18:18.611Z,79.70
2018-02-16T05:20:46.177Z,79.70
2018-02-16T05:23:14.479Z,79.70
2018-02-16T05:25:42.053Z,79.70
2018-02-16T05:28:09.588Z,79.90
2018-02-16T05:30:37.772Z,80.10
2018-02-16T05:33:05.313Z,80.10
2018-02-16T05:35:32.872Z,80.00
2018-02-16T05:38:00.484Z,79.90
2018-02-16T05:40:28.044Z,80.10
2018-02-16T05:42:55.710Z,80.20
2018-02-16T05:45:23.245Z,80.40
2018-02-16T05:47:51.229Z,80.30
2018-02-16T05:50:18.774Z,80.50
2018-02-16T05:52:46.312Z,80.40
2018-02-16T05:55:13.936Z,80.70
2018-02-16T05:57:41.528Z,80.50
2018-02-16T06:00:09.418Z,80.60
2018-02-16T06:02:36.968Z,80.80
2018-02-16T06:05:04.501Z,80.90
2018-02-16T06:07:32.848Z,81.00
2018-02-16T06:10:00.391Z,81.00
2018-02-16T06:12:27.967Z,80.90
2018-02-16T06:14:55.543Z,80.80
2018-02-16T06:17:23.897Z,80.70
2018-02-16T06:19:51.461Z,80.70
2018-02-16T06:22:21.663Z,80.70
2018-02-16T06:24:49.257Z,81.00
2018-02-16T06:27:16.800Z,81.10
2018-02-16T06:29:44.384Z,81.00
2018-02-16T06:32:11.925Z,80.90
2018-02-16T06:34:39.559Z,80.80
2018-02-16T06:37:07.111Z,80.70
2018-02-16T06:39:34.681Z,80.70
2018-02-16T06:42:02.214Z,80.80
2018-02-16T06:44:30.070Z,80.90
2018-02-16T06:46:57.636Z,81.10
2018-02-16T06:49:25.176Z,81.00
2018-02-16T06:51:53.517Z,80.70
2018-02-16T06:54:21.052Z,80.80
2018-02-16T06:56:48.629Z,80.90
2018-02-16T06:59:16.168Z,80.80
2018-02-16T07:01:43.732Z,80.80
2018-02-16T07:04:11.281Z,81.00
2018-02-16T07:06:38.853Z,80.80
2018-02-16T07:09:06.412Z,80.60
2018-02-16T07:11:34.280Z,80.70
2018-02-16T07:14:01.845Z,80.70
2018-02-16T07:16:29.384Z,80.80
2018-02-16T07:18:56.968Z,80.50
2018-02-16T07:21:24.509Z,80.70
2018-02-16T07:23:52.078Z,80.60
2018-02-16T07:26:19.625Z,80.60
2018-02-16T07:28:47.349Z,80.40
2018-02-16T07:31:14.966Z,80.80
2018-02-16T07:33:42.558Z,80.40
2018-02-16T07:36:10.888Z,80.30
2018-02-16T07:38:38.425Z,80.20
2018-02-16T07:41:05.999Z,79.90
2018-02-16T07:43:33.559Z,79.90
2018-02-16T07:46:01.358Z,80.10
2018-02-16T07:48:28.908Z,79.70
2018-02-16T07:50:56.748Z,80.50
2018-02-16T07:53:24.287Z,79.60
2018-02-16T07:55:51.822Z,79.70
2018-02-16T07:58:20.167Z,79.90
2018-02-16T08:00:47.712Z,79.80
2018-02-16T08:03:15.281Z,79.40
2018-02-16T08:05:42.817Z,79.00
2018-02-16T08:08:10.701Z,79.50
2018-02-16T08:10:38.254Z,79.60
2018-02-16T08:13:05.808Z,79.40
2018-02-16T08:15:33.384Z,78.80
2018-02-16T08:18:00.927Z,78.50
2018-02-16T08:20:28.497Z,78.60
2018-02-16T08:22:56.041Z,78.80
2018-02-16T08:25:23.619Z,78.70
2018-02-16T08:27:51.203Z,78.60
2018-02-16T08:30:19.249Z,78.10
2018-02-16T08:32:46.799Z,78.10
2018-02-16T08:35:14.328Z,78.00
2018-02-16T08:37:42.039Z,77.50
2018-02-16T08:40:09.597Z,77.70
2018-02-16T08:42:37.197Z,76.50
2018-02-16T08:45:05.515Z,76.80
2018-02-16T08:47:33.088Z,76.80
2018-02-16T08:50:00.681Z,76.60
2018-02-16T08:52:28.526Z,76.30
2018-02-16T08:54:56.076Z,76.30
2018-02-16T08:57:23.905Z,76.40
2018-02-16T08:59:51.484Z,75.80
2018-02-16T09:02:19.025Z,75.80
2018-02-16T09:04:48.131Z,75.50
2018-02-16T09:07:15.688Z,75.30
2018-02-16T09:09:43.232Z,75.10
2018-02-16T09:12:10.985Z,75.20
2018-02-16T09:14:39.283Z,74.70
2018-02-16T09:17:08.736Z,74.60
2018-02-16T09:19:36.276Z,74.20
2018-02-16T09:22:04.251Z,74.10
2018-02-16T09:24:31.812Z,74.00
2018-02-16T09:26:59.610Z,73.40
2018-02-16T09:29:27.968Z,72.90
2018-02-16T09:31:55.517Z,72.90
2018-02-16T09:34:23.110Z,72.90
2018-02-16T09:36:51.049Z,73.10
2018-02-16T09:39:19.564Z,73.10
2018-02-16T09:41:47.896Z,73.20
2018-02-16T09:44:15.866Z,73.20
2018-02-16T09:46:43.418Z,73.30
2018-02-16T09:49:11.020Z,73.20
2018-02-16T09:51:39.365Z,72.20
2018-02-16T09:54:06.913Z,72.10
2018-02-16T09:56:34.497Z,72.20
2018-02-16T09:59:02.036Z,72.00
2018-02-16T10:01:29.901Z,71.80
2018-02-16T10:03:57.448Z,71.70
2018-02-16T10:06:24.999Z,71.60
2018-02-16T10:08:52.578Z,71.50
2018-02-16T10:11:20.225Z,71.10
2018-02-16T10:13:47.868Z,71.20
2018-02-16T10:16:15.421Z,70.80
2018-02-16T10:18:43.012Z,70.80
2018-02-16T10:21:10.762Z,70.50
2018-02-16T10:23:38.345Z,70.30
2018-02-16T10:26:05.901Z,70.00
2018-02-16T10:28:33.748Z,69.90
2018-02-16T10:31:01.354Z,69.60
2018-02-16T10:33:28.920Z,69.70
2018-02-16T10:35:56.497Z,69.70
2018-02-16T10:38:24.218Z,69.70
2018-02-16T10:40:51.811Z,69.70
2018-02-16T10:43:19.373Z,69.80
2018-02-16T10:45:48.012Z,69.90
2018-02-16T10:48:15.548Z,69.80
2018-02-16T10:50:43.106Z,69.50
2018-02-16T10:53:10.684Z,69.40
2018-02-16T10:55:38.227Z,69.10
2018-02-16T10:58:06.130Z,69.10
2018-02-16T11:00:39.225Z,69.00
2018-02-16T11:03:12.712Z,69.20
2018-02-16T11:05:46.685Z,68.70
2018-02-16T11:08:20.126Z,68.70
2018-02-16T11:10:47.677Z,69.00
2018-02-16T11:13:15.237Z,69.00
2018-02-16T11:15:42.819Z,68.90
2018-02-16T11:18:10.357Z,68.80
2018-02-16T11:20:37.991Z,68.60
2018-02-16T11:23:05.589Z,68.50
2018-02-16T11:25:34.955Z,68.70
2018-02-16T11:28:02.493Z,68.80
2018-02-16T11:30:30.409Z,68.80
2018-02-16T11:32:58.094Z,68.60
2018-02-16T11:35:25.650Z,69.30
2018-02-16T11:37:53.232Z,68.60
2018-02-16T11:40:20.918Z,68.30
2018-02-16T11:42:49.270Z,68.00
2018-02-16T11:45:16.933Z,67.90
2018-02-16T11:47:45.266Z,67.60
2018-02-16T11:50:12.818Z,67.60
2018-02-16T11:52:40.411Z,68.40
2018-02-16T11:55:07.952Z,68.00
2018-02-16T11:57:35.536Z,68.10
2018-02-16T12:00:03.111Z,68.40
2018-02-16T12:02:31.751Z,68.80
2018-02-16T12:04:59.393Z,68.80
2018-02-16T12:07:26.932Z,68.80
2018-02-16T12:09:54.506Z,68.20
2018-02-16T12:12:22.063Z,68.80
2018-02-16T12:14:49.665Z,68.80
2018-02-16T12:17:17.225Z,68.70
2018-02-16T12:19:45.359Z,69.30
2018-02-16T12:22:12.889Z,68.80
2018-02-16T12:24:40.440Z,68.70
2018-02-16T12:27:08.210Z,68.70
2018-02-16T12:29:36.509Z,69.00
2018-02-16T12:32:04.097Z,69.00
2018-02-16T12:34:31.738Z,68.70
2018-02-16T12:36:59.356Z,68.80
2018-02-16T12:39:26.888Z,68.80
2018-02-16T12:41:54.488Z,68.70
2018-02-16T12:44:22.020Z,68.70
2018-02-16T12:46:49.855Z,68.70
2018-02-16T12:49:17.387Z,68.70
2018-02-16T12:51:44.933Z,68.70
2018-02-16T12:54:12.622Z,68.70
2018-02-16T12:56:40.180Z,68.50
2018-02-16T12:59:07.793Z,68.50
2018-02-16T13:01:35.336Z,68.60
2018-02-16T13:04:03.066Z,68.70
2018-02-16T13:06:30.736Z,68.70
2018-02-16T13:08:58.319Z,68.70
2018-02-16T13:11:25.917Z,68.70
2018-02-16T13:13:53.492Z,68.60
2018-02-16T13:16:21.022Z,68.70
2018-02-16T13:18:49.058Z,68.50
2018-02-16T13:21:16.556Z,69.40
2018-02-16T13:23:44.853Z,68.70
2018-02-16T13:26:12.444Z,68.70
2018-02-16T13:28:39.992Z,68.70
2018-02-16T13:31:07.979Z,68.80
2018-02-16T13:33:35.530Z,68.70
2018-02-16T13:36:03.079Z,69.20
2018-02-16T13:38:30.653Z,69.50
2018-02-16T13:40:58.211Z,69.80
2018-02-16T13:43:25.789Z,69.10
2018-02-16T13:45:53.326Z,69.50
2018-02-16T13:48:20.916Z,70.10
2018-02-16T13:50:48.461Z,69.20
2018-02-16T13:53:16.575Z,69.20
2018-02-16T13:55:44.126Z,69.60
2018-02-16T13:58:11.689Z,68.90
2018-02-16T14:00:40.050Z,68.80
2018-02-16T14:03:08.311Z,68.80
2018-02-16T14:05:35.915Z,69.10
2018-02-16T14:08:04.554Z,69.40
2018-02-16T14:10:32.146Z,69.50
2018-02-16T14:12:59.707Z,68.80
2018-02-16T14:15:28.038Z,69.40
2018-02-16T14:17:55.568Z,69.50
2018-02-16T14:20:23.565Z,68.40
2018-02-16T14:22:51.117Z,68.90
2018-02-16T14:25:18.671Z,68.80
2018-02-16T14:27:46.249Z,69.50
2018-02-16T14:30:13.806Z,68.90
2018-02-16T14:32:41.780Z,69.00
2018-02-16T14:35:09.317Z,69.20
2018-02-16T14:37:36.874Z,69.30
2018-02-16T14:40:04.517Z,69.10
2018-02-16T14:42:32.202Z,69.70
2018-02-16T14:44:59.790Z,69.50
2018-02-16T14:47:27.324Z,69.70
2018-02-16T14:49:55.208Z,69.70
2018-02-16T14:52:22.750Z,69.90
2018-02-16T14:54:50.306Z,70.00
2018-02-16T14:57:17.897Z,70.20
2018-02-16T14:59:45.532Z,70.00
2018-02-16T15:02:13.135Z,70.20
2018-02-16T15:04:40.730Z,70.30
2018-02-16T15:07:09.090Z,70.20
2018-02-16T15:09:37.391Z,70.20
2018-02-16T15:12:04.985Z,70.10
2018-02-16T15:14:32.565Z,70.40
2018-02-16T15:17:00.528Z,70.40
2018-02-16T15:19:28.081Z,70.70
2018-02-16T15:21:55.651Z,70.80
2018-02-16T15:24:23.247Z,70.90
2018-02-16T15:26:50.800Z,70.90
2018-02-16T15:29:18.390Z,70.90
2018-02-16T15:31:45.947Z,71.10
2018-02-16T15:34:13.527Z,71.10
2018-02-16T15:36:41.068Z,71.10
2018-02-16T15:39:08.948Z,71.10
2018-02-16T15:41:36.509Z,70.90
2018-02-16T15:44:04.061Z,71.00
2018-02-16T15:46:31.641Z,71.10
2018-02-16T15:48:59.193Z,71.20
2018-02-16T15:51:26.912Z,71.30
2018-02-16T15:53:55.338Z,71.70
2018-02-16T15:56:23.748Z,71.70
2018-02-16T15:58:51.281Z,71.70
2018-02-16T16:01:18.856Z,71.80
2018-02-16T16:03:46.386Z,72.00
2018-02-16T16:06:13.943Z,71.90
2018-02-16T16:08:41.540Z,72.00
2018-02-16T16:11:09.183Z,71.90
2018-02-16T16:13:36.774Z,71.90
2018-02-16T16:16:05.079Z,71.90
2018-02-16T16:18:32.669Z,71.90
2018-02-16T16:21:00.217Z,71.90
2018-02-16T16:23:28.102Z,71.90
2018-02-16T16:25:55.656Z,71.90
2018-02-16T16:28:23.219Z,71.90
2018-02-16T16:30:50.801Z,71.80
2018-02-16T16:33:18.348Z,72.40
2018-02-16T16:35:45.920Z,71.90
2018-02-16T16:38:13.463Z,71.90
2018-02-16T16:40:41.044Z,72.10
2018-02-16T16:43:08.588Z,72.30
2018-02-16T16:45:36.162Z,72.50
2018-02-16T16:48:03.710Z,72.50
2018-02-16T16:50:31.538Z,72.60
2018-02-16T16:52:59.111Z,72.70
2018-02-16T16:55:27.082Z,72.70
2018-02-16T16:57:54.625Z,72.90
2018-02-16T17:00:22.225Z,72.90
2018-02-16T17:02:49.847Z,73.10
2018-02-16T17:05:17.507Z,73.10
2018-02-16T17:07:45.106Z,73.20
2018-02-16T17:10:12.640Z,73.30
2018-02-16T17:12:40.212Z,73.40
2018-02-16T17:15:07.752Z,73.50
2018-02-16T17:17:35.802Z,73.50
2018-02-16T17:20:03.341Z,73.70
2018-02-16T17:22:31.681Z,73.90
2018-02-16T17:24:59.285Z,73.80
2018-02-16T17:27:27.777Z,74.10
2018-02-16T17:29:55.365Z,74.00
2018-02-16T17:32:22.910Z,74.00
2018-02-16T17:34:50.533Z,74.10
2018-02-16T17:37:18.845Z,74.20
2018-02-16T17:39:46.801Z,74.20
2018-02-16T17:42:14.338Z,74.30
2018-02-16T17:44:41.881Z,74.40
2018-02-16T17:47:09.503Z,74.40
2018-02-16T17:49:37.058Z,74.40
2018-02-16T17:52:04.645Z,74.50
2018-02-16T17:54:32.185Z,74.60
2018-02-16T17:56:59.756Z,74.50
2018-02-16T17:59:27.363Z,74.60
2018-02-16T18:01:55.725Z,74.90
2018-02-16T18:04:23.310Z,74.90
2018-02-16T18:06:51.176Z,74.80
2018-02-16T18:09:19.493Z,75.00
2018-02-16T18:11:47.047Z,75.00
2018-02-16T18:14:14.696Z,74.90
2018-02-16T18:16:42.462Z,74.80
2018-02-16T18:19:10.053Z,74.80
2018-02-16T18:21:37.591Z,74.90
2018-02-16T18:24:05.169Z,74.80
2018-02-16T18:26:32.729Z,74.80
2018-02-16T18:29:00.305Z,74.80
2018-02-16T18:31:27.919Z,74.90
2018-02-16T18:33:55.461Z,74.80
2018-02-16T18:36:23.038Z,74.90
2018-02-16T18:38:50.588Z,75.20
2018-02-16T18:41:18.183Z,75.20
2018-02-16T18:43:45.737Z,75.20
2018-02-16T18:46:13.382Z,75.20
2018-02-16T18:48:40.946Z,75.20
2018-02-16T18:51:08.538Z,75.10
2018-02-16T18:53:36.161Z,75.20
2018-02-16T18:56:04.151Z,75.20
2018-02-16T18:58:31.688Z,75.20
2018-02-16T19:00:59.376Z,75.20
2018-02-16T19:03:26.966Z,75.30
2018-02-16T19:05:55.280Z,75.90
2018-02-16T19:08:22.893Z,75.30
2018-02-16T19:10:50.436Z,75.40
2018-02-16T19:13:18.618Z,75.50
2018-02-16T19:15:46.169Z,75.50
2018-02-16T19:18:13.881Z,75.40
2018-02-16T19:20:41.670Z,75.40
2018-02-16T19:23:09.223Z,75.40
2018-02-16T19:25:37.065Z,75.30
2018-02-16T19:28:05.380Z,75.50
2018-02-16T19:30:32.931Z,75.50
2018-02-16T19:33:00.538Z,75.40
2018-02-16T19:35:28.078Z,75.70
2018-02-16T19:37:55.661Z,75.80
2018-02-16T19:40:23.197Z,75.60
2018-02-16T19:42:50.772Z,75.40
2018-02-16T19:45:18.329Z,75.30
2018-02-16T19:47:46.285Z,75.40
2018-02-16T19:50:13.858Z,75.00
2018-02-16T19:52:41.405Z,75.10
2018-02-16T19:55:08.994Z,74.80
2018-02-16T19:57:36.565Z,74.80
2018-02-16T20:00:04.897Z,74.80
2018-02-16T20:02:32.503Z,74.80
2018-02-16T20:05:00.070Z,74.70
2018-02-16T20:07:27.623Z,74.70
2018-02-16T20:09:55.667Z,74.70
2018-02-16T20:12:23.215Z,74.70
2018-02-16T20:14:50.769Z,74.70
2018-02-16T20:17:18.344Z,74.80
2018-02-16T20:19:45.888Z,74.80
2018-02-16T20:22:13.493Z,74.80
2018-02-16T20:24:41.805Z,74.80
2018-02-16T20:27:10.510Z,74.80
2018-02-16T20:29:38.036Z,74.90
2018-02-16T20:32:05.584Z,75.00
2018-02-16T20:34:33.302Z,74.90
2018-02-16T20:37:00.842Z,74.80
2018-02-16T20:39:28.419Z,74.70
2018-02-16T20:41:55.966Z,74.70
2018-02-16T20:44:23.548Z,74.70
2018-02-16T20:46:51.099Z,74.70
2018-02-16T20:49:18.717Z,74.80
2018-02-16T20:51:46.280Z,74.80
2018-02-16T20:54:14.189Z,74.80
2018-02-16T20:56:41.740Z,74.80
2018-02-16T20:59:09.268Z,74.80
2018-02-16T21:01:36.857Z,74.80
2018-02-16T21:04:04.465Z,74.80
2018-02-16T21:06:32.855Z,74.60
2018-02-16T21:09:00.509Z,74.70
2018-02-16T21:11:28.105Z,74.40
2018-02-16T21:13:56.409Z,74.70
2018-02-16T21:16:24.010Z,74.30
2018-02-16T21:18:51.586Z,74.40
2018-02-16T21:21:19.189Z,74.40
2018-02-16T21:23:46.762Z,74.40
2018-02-16T21:26:15.159Z,74.40
2018-02-16T21:28:43.003Z,74.20
2018-02-16T21:31:10.560Z,74.20
2018-02-16T21:33:38.112Z,74.40
2018-02-16T21:36:05.701Z,74.50
2018-02-16T21:38:34.004Z,74.70
2018-02-16T21:41:01.907Z,74.60
2018-02-16T21:43:29.441Z,74.60
2018-02-16T21:45:56.981Z,74.60
2018-02-16T21:48:24.564Z,74.60
2018-02-16T21:50:52.126Z,74.60
2018-02-16T21:53:19.711Z,74.60
2018-02-16T21:55:47.262Z,74.60
2018-02-16T21:58:14.857Z,75.20
2018-02-16T22:00:43.156Z,74.60
2018-02-16T22:03:10.733Z,74.60
2018-02-16T22:05:38.280Z,74.60
2018-02-16T22:08:06.345Z,74.60
2018-02-16T22:10:33.888Z,74.70
2018-02-16T22:13:01.473Z,74.90
2018-02-16T22:15:29.082Z,74.60
2018-02-16T22:17:56.632Z,74.60
2018-02-16T22:20:24.221Z,74.70
2018-02-16T22:22:52.561Z,75.20
2018-02-16T22:25:20.180Z,75.10
2018-02-16T22:27:48.562Z,75.00
2018-02-16T22:30:16.457Z,75.00
2018-02-16T22:32:43.996Z,74.70
2018-02-16T22:35:11.663Z,74.70
2018-02-16T22:37:39.250Z,74.70
2018-02-16T22:40:06.788Z,74.70
2018-02-16T22:42:34.395Z,75.00
2018-02-16T22:45:01.930Z,75.00
2018-02-16T22:47:29.610Z,75.50
2018-02-16T22:49:57.142Z,75.40
2018-02-16T22:52:24.754Z,75.00
2018-02-16T22:54:53.041Z,74.90
2018-02-16T22:57:20.972Z,74.70
2018-02-16T22:59:48.518Z,75.10
2018-02-16T23:02:16.073Z,75.00
2018-02-16T23:04:43.705Z,75.00
2018-02-16T23:07:11.247Z,74.90
2018-02-16T23:09:38.819Z,74.90
2018-02-16T23:12:07.077Z,74.90
2018-02-16T23:14:34.668Z,74.90
2018-02-16T23:17:02.215Z,74.90
2018-02-16T23:19:30.111Z,75.00
2018-02-16T23:21:59.392Z,75.00
2018-02-16T23:24:26.941Z,75.00
2018-02-16T23:26:54.539Z,75.00
2018-02-16T23:29:22.117Z,75.00
2018-02-16T23:31:49.697Z,75.00
2018-02-16T23:34:17.993Z,74.90
2018-02-16T23:36:45.840Z,74.80
2018-02-16T23:39:14.178Z,74.90
2018-02-16T23:41:41.885Z,75.00
2018-02-16T23:44:09.455Z,74.90
2018-02-16T23:46:36.997Z,74.80
2018-02-16T23:49:04.578Z,74.80
2018-02-16T23:51:32.118Z,74.80
2018-02-16T23:53:59.709Z,74.80
2018-02-16T23:56:27.258Z,74.80
2018-02-16T23:58:55.309Z,74.80
